HLE41 EGFH-EGGD

Flight info

Callsign HLE41
Flight time 0h 28m
Altitude 1200
Route EGFH VP120 VP092 EGGD
Aircraft EC45

Departure

Time 2026-05-08 16:53
Airport Swansea Airport (EGFH)

Arrival

Time 2026-05-08 17:22
Airport Bristol Airport (EGGD)
Time Latitude Longitude Altitude Speed Heading
2026-05-08 16:45 51.60138 -4.06699 270 ft 0 kts 277°
2026-05-08 16:50 51.60135 -4.06658 275 ft 5 kts 282°
2026-05-08 16:50 51.60154 -4.06648 281 ft 5 kts 306°
2026-05-08 16:50 51.60193 -4.06765 288 ft 15 kts 288°
2026-05-08 16:50 51.60197 -4.06845 284 ft 5 kts 248°
2026-05-08 16:51 51.60156 -4.06947 297 ft 7 kts 331°
2026-05-08 16:51 51.60251 -4.07054 282 ft 19 kts 287°
2026-05-08 16:51 51.60184 -4.07189 297 ft 34 kts 225°
2026-05-08 16:51 51.60097 -4.07287 293 ft 13 kts 108°
2026-05-08 16:52 51.60052 -4.06784 424 ft 79 kts 99°
2026-05-08 16:52 51.59956 -4.05729 565 ft 105 kts 99°
2026-05-08 16:52 51.59864 -4.04511 727 ft 111 kts 98°
2026-05-08 16:52 51.59800 -4.03263 855 ft 116 kts 95°
2026-05-08 16:53 51.59776 -4.00615 1080 ft 121 kts 90°
2026-05-08 16:53 51.59825 -3.99283 1225 ft 117 kts 87°
2026-05-08 16:53 51.59919 -3.97963 1203 ft 122 kts 84°
2026-05-08 16:54 51.60036 -3.96607 1201 ft 122 kts 84°
2026-05-08 16:54 51.60161 -3.95260 1192 ft 123 kts 84°
2026-05-08 16:54 51.60287 -3.93912 1189 ft 122 kts 83°
2026-05-08 16:54 51.60410 -3.92563 1184 ft 122 kts 84°
2026-05-08 16:55 51.60529 -3.91233 1190 ft 122 kts 83°
2026-05-08 16:55 51.60647 -3.89887 1189 ft 122 kts 83°
2026-05-08 16:55 51.60765 -3.88543 1190 ft 121 kts 83°
2026-05-08 16:55 51.60791 -3.87205 1190 ft 119 kts 103°
2026-05-08 16:56 51.60568 -3.85937 1188 ft 118 kts 109°
2026-05-08 16:56 51.60314 -3.84695 1191 ft 116 kts 111°
2026-05-08 16:56 51.60073 -3.83459 1189 ft 116 kts 110°
2026-05-08 16:56 51.59823 -3.82213 1195 ft 117 kts 111°
2026-05-08 16:57 51.59580 -3.80977 1185 ft 119 kts 110°
2026-05-08 16:57 51.59325 -3.79699 1201 ft 117 kts 110°
2026-05-08 16:57 51.58969 -3.78731 1193 ft 96 kts 137°
2026-05-08 16:57 51.58416 -3.78088 1190 ft 101 kts 149°
2026-05-08 16:58 51.57821 -3.77509 1196 ft 99 kts 150°
2026-05-08 16:58 51.57256 -3.76891 1191 ft 99 kts 137°
2026-05-08 16:58 51.56937 -3.75892 1191 ft 103 kts 111°
2026-05-08 16:58 51.56810 -3.74746 1201 ft 102 kts 98°
2026-05-08 16:59 51.56830 -3.73618 1191 ft 103 kts 89°
2026-05-08 16:59 51.56894 -3.72402 1198 ft 113 kts 88°
2026-05-08 16:59 51.57036 -3.71206 1193 ft 108 kts 81°
2026-05-08 16:59 51.57227 -3.70003 1182 ft 115 kts 81°
2026-05-08 17:00 51.57419 -3.68785 1198 ft 111 kts 80°
2026-05-08 17:00 51.57611 -3.67600 1195 ft 109 kts 80°
2026-05-08 17:00 51.57806 -3.66400 1192 ft 113 kts 80°
2026-05-08 17:00 51.57994 -3.65196 1195 ft 109 kts 81°
2026-05-08 17:01 51.58186 -3.63997 1196 ft 111 kts 81°
2026-05-08 17:01 51.58326 -3.62801 1197 ft 106 kts 95°
2026-05-08 17:01 51.58225 -3.61652 1192 ft 104 kts 107°
2026-05-08 17:01 51.58057 -3.60512 1197 ft 106 kts 108°
2026-05-08 17:02 51.57882 -3.59352 1198 ft 108 kts 106°
2026-05-08 17:02 51.57788 -3.58169 1201 ft 105 kts 99°
2026-05-08 17:02 51.57764 -3.57022 1192 ft 105 kts 97°
2026-05-08 17:02 51.57721 -3.55824 1193 ft 107 kts 98°
2026-05-08 17:03 51.57680 -3.54648 1205 ft 103 kts 97°
2026-05-08 17:03 51.57631 -3.53460 1192 ft 110 kts 98°
2026-05-08 17:03 51.57586 -3.52265 1197 ft 104 kts 96°
2026-05-08 17:03 51.57520 -3.51104 1191 ft 105 kts 99°
2026-05-08 17:04 51.57471 -3.49914 1196 ft 109 kts 93°
2026-05-08 17:04 51.57541 -3.48705 1199 ft 108 kts 87°
2026-05-08 17:04 51.57628 -3.47531 1192 ft 107 kts 86°
2026-05-08 17:04 51.57723 -3.46335 1196 ft 109 kts 87°
2026-05-08 17:05 51.57656 -3.45165 1195 ft 105 kts 109°
2026-05-08 17:05 51.57370 -3.44082 1203 ft 104 kts 116°
2026-05-08 17:05 51.57059 -3.42999 1195 ft 109 kts 116°
2026-05-08 17:05 51.56750 -3.41914 1194 ft 104 kts 117°
2026-05-08 17:06 51.56458 -3.40835 1193 ft 107 kts 116°
2026-05-08 17:06 51.56162 -3.39756 1195 ft 104 kts 117°
2026-05-08 17:06 51.55880 -3.38676 1192 ft 107 kts 116°
2026-05-08 17:06 51.55573 -3.37567 1203 ft 108 kts 117°
2026-05-08 17:07 51.55283 -3.36476 1187 ft 105 kts 116°
2026-05-08 17:07 51.54999 -3.35390 1190 ft 109 kts 110°
2026-05-08 17:07 51.54773 -3.34222 1169 ft 115 kts 108°
2026-05-08 17:07 51.54528 -3.32932 1236 ft 115 kts 108°
2026-05-08 17:08 51.54302 -3.31677 1209 ft 119 kts 108°
2026-05-08 17:08 51.54074 -3.30412 1196 ft 120 kts 108°
2026-05-08 17:08 51.53840 -3.29137 1211 ft 116 kts 107°
2026-05-08 17:08 51.53606 -3.27870 1194 ft 120 kts 108°
2026-05-08 17:09 51.53366 -3.26605 1196 ft 118 kts 109°
2026-05-08 17:09 51.53126 -3.25338 1195 ft 119 kts 108°
2026-05-08 17:09 51.52883 -3.24066 1203 ft 117 kts 109°
2026-05-08 17:09 51.52648 -3.22835 1194 ft 119 kts 109°
2026-05-08 17:10 51.52403 -3.21560 1201 ft 118 kts 109°
2026-05-08 17:10 51.52160 -3.20296 1194 ft 120 kts 109°
2026-05-08 17:10 51.51915 -3.19024 1196 ft 119 kts 110°
2026-05-08 17:10 51.51670 -3.17759 1189 ft 119 kts 110°
2026-05-08 17:11 51.51419 -3.16479 1194 ft 121 kts 109°
2026-05-08 17:11 51.51171 -3.15202 1196 ft 120 kts 109°
2026-05-08 17:11 51.50925 -3.13927 1195 ft 119 kts 109°
2026-05-08 17:11 51.50681 -3.12671 1195 ft 120 kts 110°
2026-05-08 17:12 51.50436 -3.11401 1201 ft 118 kts 109°
2026-05-08 17:12 51.50188 -3.10125 1195 ft 122 kts 109°
2026-05-08 17:12 51.49942 -3.08847 1199 ft 117 kts 109°
2026-05-08 17:12 51.49692 -3.07570 1191 ft 122 kts 109°
2026-05-08 17:13 51.49443 -3.06286 1198 ft 119 kts 108°
2026-05-08 17:13 51.49195 -3.05015 1198 ft 119 kts 109°
2026-05-08 17:13 51.48947 -3.03744 1197 ft 119 kts 109°
2026-05-08 17:13 51.48702 -3.02484 1193 ft 119 kts 110°
2026-05-08 17:14 51.48454 -3.01218 1195 ft 118 kts 109°
2026-05-08 17:14 51.48208 -2.99972 1196 ft 119 kts 110°
2026-05-08 17:14 51.47960 -2.98711 1193 ft 119 kts 109°
2026-05-08 17:14 51.47710 -2.97440 1198 ft 119 kts 110°
2026-05-08 17:15 51.47461 -2.96176 1191 ft 120 kts 110°
2026-05-08 17:15 51.47211 -2.94909 1198 ft 119 kts 109°
2026-05-08 17:15 51.46962 -2.93639 1192 ft 120 kts 110°
2026-05-08 17:15 51.46712 -2.92367 1214 ft 120 kts 110°
2026-05-08 17:16 51.46461 -2.91093 1215 ft 120 kts 110°
2026-05-08 17:16 51.46211 -2.89815 1211 ft 121 kts 110°
2026-05-08 17:16 51.45958 -2.88531 1214 ft 120 kts 109°
2026-05-08 17:16 51.45712 -2.87279 1200 ft 118 kts 109°
2026-05-08 17:17 51.45473 -2.86057 1197 ft 114 kts 110°
2026-05-08 17:17 51.45230 -2.84838 1206 ft 115 kts 111°
2026-05-08 17:17 51.45013 -2.83700 1245 ft 93 kts 109°
2026-05-08 17:17 51.44829 -2.82741 1200 ft 95 kts 110°
2026-05-08 17:18 51.44617 -2.81700 1205 ft 99 kts 111°
2026-05-08 17:18 51.44412 -2.80665 1204 ft 96 kts 110°
2026-05-08 17:18 51.44223 -2.79681 1197 ft 90 kts 110°
2026-05-08 17:18 51.43845 -2.78867 1194 ft 95 kts 147°
2026-05-08 17:19 51.43220 -2.78568 1201 ft 92 kts 166°
2026-05-08 17:19 51.42592 -2.78385 1195 ft 93 kts 167°
2026-05-08 17:19 51.41956 -2.78161 1198 ft 93 kts 163°
2026-05-08 17:19 51.41329 -2.77856 1190 ft 99 kts 162°
2026-05-08 17:20 51.40675 -2.77550 1198 ft 95 kts 161°
2026-05-08 17:20 51.40035 -2.77283 1212 ft 97 kts 163°
2026-05-08 17:20 51.39362 -2.77006 1162 ft 101 kts 162°
2026-05-08 17:20 51.38716 -2.76679 1076 ft 89 kts 150°
2026-05-08 17:21 51.38346 -2.76008 1059 ft 78 kts 115°
2026-05-08 17:21 51.38201 -2.75112 926 ft 97 kts 102°
2026-05-08 17:21 51.38181 -2.73924 757 ft 111 kts 87°
2026-05-08 17:21 51.38237 -2.72824 656 ft 81 kts 92°
2026-05-08 17:22 51.38263 -2.72141 622 ft 45 kts 95°
2026-05-08 17:22 51.38274 -2.71782 613 ft 24 kts 96°
2026-05-08 17:22 51.38282 -2.71550 607 ft 20 kts 102°
2026-05-08 17:22 51.38277 -2.71409 603 ft 9 kts 141°
2026-05-08 17:23 51.38214 -2.71336 600 ft 15 kts 154°
2026-05-08 17:23 51.38148 -2.71267 600 ft 10 kts 154°
2026-05-08 17:23 51.38134 -2.71149 604 ft 15 kts 96°
2026-05-08 17:23 51.38097 -2.71047 610 ft 14 kts 135°
2026-05-08 17:24 51.38067 -2.70949 606 ft 7 kts 204°
2026-05-08 17:24 51.38012 -2.70972 611 ft 12 kts 214°
2026-05-08 17:24 51.37953 -2.71038 607 ft 8 kts 300°
2026-05-08 17:24 51.37952 -2.71095 611 ft 6 kts 359°
2026-05-08 17:25 51.37966 -2.71104 622 ft 1 kts 125°
2026-05-08 17:25 51.37967 -2.71103 616 ft 0 kts 128°